createdAt,value
2022-09-26T00:01:38.029Z,99491.56
2022-09-26T00:04:23.335Z,99487.38
2022-09-26T00:06:53.542Z,99493.72
2022-09-26T00:09:23.305Z,99500.38
2022-09-26T00:11:51.696Z,99502.34
2022-09-26T00:14:24.698Z,99494.34
2022-09-26T00:16:52.894Z,99499.53
2022-09-26T00:19:21.644Z,99499.81
2022-09-26T00:21:49.575Z,99490.59
2022-09-26T00:24:17.394Z,99480.44
2022-09-26T00:26:44.970Z,99481.19
2022-09-26T00:29:14.089Z,99477.78
2022-09-26T00:31:44.921Z,99479.84
2022-09-26T00:34:15.992Z,99479.19
2022-09-26T00:36:43.836Z,99473.66
2022-09-26T00:39:15.743Z,99478.22
2022-09-26T00:41:44.139Z,99470.25
2022-09-26T00:44:49.877Z,99475.78
2022-09-26T00:47:41.756Z,99486.69
2022-09-26T00:50:40.883Z,99470.53
2022-09-26T00:53:17.822Z,99459.56
2022-09-26T00:55:54.899Z,99457.19
2022-09-26T00:58:39.196Z,99462.47
2022-09-26T01:01:08.291Z,99466.34
2022-09-26T01:03:38.509Z,99469.28
2022-09-26T01:06:06.505Z,99469.44
2022-09-26T01:08:40.809Z,99474.56
2022-09-26T01:11:13.606Z,99473.81
2022-09-26T01:13:45.043Z,99473.72
2022-09-26T01:16:13.105Z,99467.34
2022-09-26T01:18:41.036Z,99476.06
2022-09-26T01:22:11.662Z,99465.72
2022-09-26T01:24:55.735Z,99455.75
2022-09-26T01:27:45.033Z,99462.72
2022-09-26T01:30:18.916Z,99463.38
2022-09-26T01:33:12.757Z,99469.06
2022-09-26T01:36:06.066Z,99468.63
2022-09-26T01:39:26.680Z,99476.81
2022-09-26T01:42:23.379Z,99483.75
2022-09-26T01:45:08.014Z,99483.44
2022-09-26T01:47:42.555Z,99486.69
2022-09-26T01:50:53.444Z,99481.59
2022-09-26T01:54:04.687Z,99479.59
2022-09-26T01:56:38.936Z,99489.94
2022-09-26T01:59:30.578Z,99502.59
2022-09-26T02:02:14.859Z,99494.84
2022-09-26T02:04:49.019Z,99491.91
2022-09-26T02:07:21.764Z,99491.63
2022-09-26T02:09:59.310Z,99480.47
2022-09-26T02:12:39.671Z,99478.00
2022-09-26T02:15:13.378Z,99476.47
2022-09-26T02:17:49.812Z,99474.31
2022-09-26T02:20:32.989Z,99471.69
2022-09-26T02:23:05.071Z,99474.00
2022-09-26T02:25:34.492Z,99478.78
2022-09-26T02:28:02.320Z,99472.88
2022-09-26T02:30:30.575Z,99468.59
2022-09-26T02:32:59.458Z,99472.28
2022-09-26T02:35:47.237Z,99471.97
2022-09-26T02:38:17.462Z,99473.22
2022-09-26T02:41:36.645Z,99472.16
2022-09-26T02:44:24.461Z,99469.41
2022-09-26T02:47:25.312Z,99464.94
2022-09-26T02:49:55.795Z,99473.25
2022-09-26T02:52:48.357Z,99464.00
2022-09-26T02:55:26.404Z,99466.94
2022-09-26T02:58:05.582Z,99461.84
2022-09-26T03:00:48.690Z,99460.16
2022-09-26T03:03:35.910Z,99462.47
2022-09-26T03:06:08.426Z,99458.91
2022-09-26T03:08:44.624Z,99459.84
2022-09-26T03:11:19.249Z,99459.81
2022-09-26T03:13:48.671Z,99461.06
2022-09-26T03:16:17.457Z,99464.16
2022-09-26T03:19:30.245Z,99465.34
2022-09-26T03:22:00.062Z,99463.34
2022-09-26T03:24:29.125Z,99463.91
2022-09-26T03:27:00.643Z,99456.38
2022-09-26T03:29:28.337Z,99458.03
2022-09-26T03:31:56.197Z,99453.09
2022-09-26T03:34:23.832Z,99460.31
2022-09-26T03:36:51.899Z,99451.69
2022-09-26T03:39:19.570Z,99445.19
2022-09-26T03:42:10.087Z,99437.66
2022-09-26T03:44:39.022Z,99433.59
2022-09-26T03:47:13.621Z,99438.69
2022-09-26T03:49:43.170Z,99437.31
2022-09-26T03:52:13.017Z,99429.50
2022-09-26T03:54:41.286Z,99432.41
2022-09-26T03:57:15.944Z,99435.75
2022-09-26T03:59:49.897Z,99425.41
2022-09-26T04:02:21.999Z,99429.56
2022-09-26T04:05:01.951Z,99429.66
2022-09-26T04:07:29.580Z,99433.69
2022-09-26T04:09:57.897Z,99429.50
2022-09-26T04:12:25.785Z,99431.53
2022-09-26T04:14:55.021Z,99431.53
2022-09-26T04:17:22.512Z,99434.75
2022-09-26T04:19:49.985Z,99418.84
2022-09-26T04:22:17.521Z,99418.00
2022-09-26T04:24:45.332Z,99428.75
2022-09-26T04:27:15.529Z,99427.28
2022-09-26T04:29:46.183Z,99424.34
2022-09-26T04:32:19.771Z,99426.38
2022-09-26T04:35:13.130Z,99443.69
2022-09-26T04:37:41.209Z,99442.34
2022-09-26T04:40:11.321Z,99437.09
2022-09-26T04:42:45.231Z,99434.66
2022-09-26T04:45:12.943Z,99437.09
2022-09-26T04:47:40.378Z,99435.41
2022-09-26T04:50:26.401Z,99434.16
2022-09-26T04:53:08.154Z,99435.25
2022-09-26T04:56:01.051Z,99441.09
2022-09-26T04:58:32.749Z,99444.03
2022-09-26T05:01:06.059Z,99434.53
2022-09-26T05:03:45.522Z,99432.16
2022-09-26T05:06:15.587Z,99426.16
2022-09-26T05:08:46.517Z,99436.97
2022-09-26T05:11:18.205Z,99445.00
2022-09-26T05:13:49.059Z,99442.06
2022-09-26T05:16:20.133Z,99453.56
2022-09-26T05:18:51.996Z,99451.03
2022-09-26T05:21:19.979Z,99442.50
2022-09-26T05:24:07.445Z,99451.53
2022-09-26T05:26:44.421Z,99459.81
2022-09-26T05:29:12.490Z,99454.66
2022-09-26T05:31:46.960Z,99459.00
2022-09-26T05:34:19.555Z,99457.59
2022-09-26T05:36:48.567Z,99450.16
2022-09-26T05:39:39.018Z,99439.94
2022-09-26T05:42:10.812Z,99440.72
2022-09-26T05:44:39.902Z,99443.50
2022-09-26T05:47:09.019Z,99438.88
2022-09-26T05:49:38.419Z,99438.28
2022-09-26T05:52:06.760Z,99445.59
2022-09-26T05:54:34.210Z,99451.50
2022-09-26T05:57:21.285Z,99450.56
2022-09-26T05:59:55.050Z,99449.66
2022-09-26T06:02:25.393Z,99446.00
2022-09-26T06:05:19.784Z,99444.41
2022-09-26T06:08:09.995Z,99439.53
2022-09-26T06:10:45.631Z,99428.88
2022-09-26T06:13:15.378Z,99434.06
2022-09-26T06:15:50.044Z,99429.31
2022-09-26T06:18:18.275Z,99424.44
2022-09-26T06:20:46.044Z,99419.13
2022-09-26T06:23:14.345Z,99425.84
2022-09-26T06:25:44.950Z,99433.31
2022-09-26T06:28:13.762Z,99432.09
2022-09-26T06:30:41.702Z,99426.84
2022-09-26T06:33:14.618Z,99426.72
2022-09-26T06:36:12.873Z,99435.22
2022-09-26T06:38:44.033Z,99436.91
2022-09-26T06:41:16.690Z,99444.06
2022-09-26T06:43:47.851Z,99448.06
2022-09-26T06:46:34.051Z,99445.97
2022-09-26T06:49:21.942Z,99450.91
2022-09-26T06:52:03.439Z,99448.63
2022-09-26T06:54:31.090Z,99443.13
2022-09-26T06:56:58.661Z,99443.19
2022-09-26T06:59:26.370Z,99447.06
2022-09-26T07:02:12.077Z,99460.03
2022-09-26T07:04:54.762Z,99469.44
2022-09-26T07:07:41.995Z,99473.91
2022-09-26T07:10:16.737Z,99474.09
2022-09-26T07:13:03.223Z,99462.78
2022-09-26T07:15:34.033Z,99460.03
2022-09-26T07:18:07.830Z,99448.72
2022-09-26T07:20:56.909Z,99446.41
2022-09-26T07:23:36.432Z,99448.28
2022-09-26T07:26:04.139Z,99432.38
2022-09-26T07:28:31.711Z,99420.50
2022-09-26T07:30:59.685Z,99422.00
2022-09-26T07:34:04.152Z,99422.72
2022-09-26T07:36:32.497Z,99431.69
2022-09-26T07:39:03.779Z,99433.13
2022-09-26T07:41:31.888Z,99439.47
2022-09-26T07:47:07.465Z,99436.19
2022-09-26T07:49:54.677Z,99429.13
2022-09-26T07:52:59.127Z,99429.06
2022-09-26T07:55:29.800Z,99418.41
2022-09-26T07:58:09.031Z,99404.44
2022-09-26T08:00:59.643Z,99418.13
2022-09-26T08:04:06.556Z,99424.06
2022-09-26T08:06:40.513Z,99425.56
2022-09-26T08:09:08.847Z,99434.91
2022-09-26T08:12:05.982Z,99430.44
2022-09-26T08:14:53.839Z,99417.75
2022-09-26T08:30:34.797Z,99374.97
2022-09-26T08:35:48.601Z,99361.97
2022-09-26T08:38:38.293Z,99357.31
2022-09-26T08:41:32.721Z,99355.38
2022-09-26T08:45:01.233Z,99347.72
2022-09-26T08:47:50.486Z,99345.38
2022-09-26T08:50:54.286Z,99363.47
2022-09-26T08:53:48.772Z,99358.84
2022-09-26T08:56:35.773Z,99360.16
2022-09-26T08:59:09.276Z,99363.22
2022-09-26T09:01:41.257Z,99353.97
2022-09-26T09:04:41.324Z,99349.44
2022-09-26T09:07:25.437Z,99345.81
2022-09-26T09:10:05.445Z,99348.66
2022-09-26T09:13:15.010Z,99358.66
2022-09-26T09:16:25.528Z,99345.53
2022-09-26T09:19:40.413Z,99339.88
2022-09-26T09:22:35.869Z,99336.25
2022-09-26T09:25:29.323Z,99326.66
2022-09-26T09:28:27.675Z,99314.66
2022-09-26T09:31:04.395Z,99309.72
2022-09-26T09:33:47.612Z,99297.56
2022-09-26T09:36:42.209Z,99301.53
2022-09-26T09:39:44.052Z,99307.56
2022-09-26T09:42:48.631Z,99314.97
2022-09-26T09:45:34.148Z,99316.38
2022-09-26T09:48:01.960Z,99308.34
2022-09-26T09:50:50.181Z,99292.41
2022-09-26T09:53:54.159Z,99282.28
2022-09-26T09:56:52.081Z,99267.81
2022-09-26T10:00:05.249Z,99270.97
2022-09-26T10:03:01.623Z,99272.81
2022-09-26T10:05:42.795Z,99267.47
2022-09-26T10:08:35.804Z,99264.19
2022-09-26T10:11:27.225Z,99273.50
2022-09-26T10:14:03.467Z,99262.22
2022-09-26T10:17:10.644Z,99261.88
2022-09-26T10:19:58.407Z,99259.53
2022-09-26T10:22:37.885Z,99254.22
2022-09-26T10:25:22.719Z,99242.63
2022-09-26T10:27:58.221Z,99238.88
2022-09-26T10:30:48.047Z,99247.13
2022-09-26T10:33:29.387Z,99241.25
2022-09-26T10:36:21.385Z,99234.56
2022-09-26T10:39:22.074Z,99239.84
2022-09-26T10:42:00.277Z,99236.34
2022-09-26T10:44:38.425Z,99228.28
2022-09-26T10:47:14.066Z,99226.13
2022-09-26T10:50:26.203Z,99222.88
2022-09-26T10:53:40.158Z,99222.75
2022-09-26T10:56:16.934Z,99210.41
2022-09-26T10:58:47.427Z,99210.63
2022-09-26T11:01:23.380Z,99206.88
2022-09-26T11:03:53.005Z,99192.34
2022-09-26T11:06:31.691Z,99190.56
2022-09-26T11:09:05.664Z,99183.38
2022-09-26T11:11:53.257Z,99183.78
2022-09-26T11:14:31.228Z,99183.47
2022-09-26T11:17:03.368Z,99175.84
2022-09-26T11:19:58.375Z,99175.84
2022-09-26T11:22:42.770Z,99173.63
2022-09-26T11:25:25.702Z,99166.31
2022-09-26T11:28:34.462Z,99159.94
2022-09-26T11:31:34.606Z,99152.31
2022-09-26T11:34:36.698Z,99149.63
2022-09-26T11:37:31.085Z,99156.09
2022-09-26T11:40:20.682Z,99154.34
2022-09-26T11:43:31.516Z,99150.06
2022-09-26T11:46:38.502Z,99145.47
2022-09-26T11:49:59.213Z,99138.13
2022-09-26T11:53:08.197Z,99140.25
2022-09-26T11:56:16.056Z,99127.00
2022-09-26T11:59:32.752Z,99123.69
2022-09-26T12:02:31.843Z,99118.50
2022-09-26T12:05:36.500Z,99112.88
2022-09-26T12:08:19.323Z,99112.88
2022-09-26T12:11:00.346Z,99106.25
2022-09-26T12:13:40.427Z,99095.84
2022-09-26T12:16:45.684Z,99087.38
2022-09-26T12:19:16.621Z,99083.25
2022-09-26T12:22:33.356Z,99084.13
2022-09-26T12:25:27.904Z,99085.72
2022-09-26T12:28:11.552Z,99094.53
2022-09-26T12:31:09.739Z,99087.78
2022-09-26T12:34:24.704Z,99088.03
2022-09-26T12:37:10.088Z,99077.16
2022-09-26T12:40:37.492Z,99074.00
2022-09-26T12:43:51.682Z,99060.25
2022-09-26T12:46:59.229Z,99063.31
2022-09-26T12:50:08.107Z,99058.63
2022-09-26T12:52:59.973Z,99059.66
2022-09-26T12:55:33.108Z,99069.31
2022-09-26T12:58:40.269Z,99053.03
2022-09-26T13:01:36.040Z,99058.72
2022-09-26T13:04:34.176Z,99054.38
2022-09-26T13:07:20.326Z,99041.13
2022-09-26T13:10:15.787Z,99040.78
2022-09-26T13:12:49.122Z,99036.63
2022-09-26T13:15:40.208Z,99039.56
2022-09-26T13:18:33.270Z,99038.88
2022-09-26T13:21:13.330Z,99031.44
2022-09-26T13:23:47.269Z,99014.09
2022-09-26T13:26:29.070Z,99018.47
2022-09-26T13:29:17.509Z,99016.75
2022-09-26T13:32:22.790Z,99005.00
2022-09-26T13:35:05.973Z,99006.59
2022-09-26T13:37:36.186Z,98991.56
2022-09-26T13:40:23.599Z,98979.72
2022-09-26T13:43:43.606Z,98979.25
2022-09-26T13:46:29.007Z,98971.50
2022-09-26T13:49:02.796Z,98974.50
2022-09-26T13:52:20.656Z,98975.97
2022-09-26T13:55:04.235Z,98974.09
2022-09-26T13:57:50.424Z,98960.03
2022-09-26T14:00:24.372Z,98965.56
2022-09-26T14:03:16.775Z,98948.41
2022-09-26T14:05:44.332Z,98948.66
2022-09-26T14:08:53.441Z,98949.28
2022-09-26T14:11:32.601Z,98956.09
2022-09-26T14:14:21.519Z,98952.16
2022-09-26T14:17:20.140Z,98953.81
2022-09-26T14:19:53.351Z,98943.59
2022-09-26T14:22:37.786Z,98942.44
2022-09-26T14:25:46.669Z,98940.22
2022-09-26T14:28:38.857Z,98934.59
2022-09-26T14:31:25.164Z,98934.59
2022-09-26T14:34:21.299Z,98936.91
2022-09-26T14:36:53.840Z,98929.47
2022-09-26T14:39:35.239Z,98919.09
2022-09-26T14:42:23.655Z,98927.41
2022-09-26T14:44:58.228Z,98925.88
2022-09-26T14:47:30.164Z,98913.75
2022-09-26T14:50:25.513Z,98914.38
2022-09-26T14:52:59.554Z,98912.28
2022-09-26T14:55:29.571Z,98904.28
2022-09-26T14:58:37.970Z,98905.78
2022-09-26T15:01:18.951Z,98914.34
2022-09-26T15:04:01.525Z,98914.38
2022-09-26T15:06:32.093Z,98912.31
2022-09-26T15:09:00.040Z,98913.22
2022-09-26T15:11:58.291Z,98905.50
2022-09-26T15:14:37.967Z,98898.34
2022-09-26T15:17:07.181Z,98898.81
2022-09-26T15:19:49.111Z,98884.69
2022-09-26T15:22:25.387Z,98890.50
2022-09-26T15:25:22.844Z,98886.19
2022-09-26T15:27:54.221Z,98874.16
2022-09-26T15:30:35.312Z,98868.84
2022-09-26T15:33:04.149Z,98881.19
2022-09-26T15:35:33.299Z,98872.53
2022-09-26T15:38:12.462Z,98878.97
2022-09-26T15:40:40.069Z,98877.72
2022-09-26T15:43:22.432Z,98882.00
2022-09-26T15:46:03.473Z,98880.97
2022-09-26T15:48:34.107Z,98870.06
2022-09-26T15:51:23.748Z,98868.41
2022-09-26T15:53:57.967Z,98870.88
2022-09-26T15:56:32.828Z,98868.59
2022-09-26T15:59:27.992Z,98876.66
2022-09-26T16:01:56.241Z,98869.34
2022-09-26T16:04:25.142Z,98874.22
2022-09-26T16:06:58.738Z,98881.53
2022-09-26T16:09:44.167Z,98879.88
2022-09-26T16:12:20.035Z,98881.63
2022-09-26T16:14:52.322Z,98879.22
2022-09-26T16:17:32.550Z,98875.81
2022-09-26T16:20:22.851Z,98867.00
2022-09-26T16:23:05.202Z,98856.59
2022-09-26T16:25:48.147Z,98847.97
2022-09-26T16:28:17.737Z,98840.25
2022-09-26T16:30:53.217Z,98841.38
2022-09-26T16:33:35.808Z,98856.28
2022-09-26T16:36:32.656Z,98859.44
2022-09-26T16:39:07.359Z,98856.78
2022-09-26T16:44:44.842Z,98872.31
2022-09-26T16:47:43.234Z,98877.03
2022-09-26T16:50:37.523Z,98867.78
2022-09-26T16:53:10.239Z,98867.38
2022-09-26T16:55:38.973Z,98875.88
2022-09-26T16:58:13.897Z,98878.28
2022-09-26T17:01:02.918Z,98877.16
2022-09-26T17:03:33.991Z,98872.09
2022-09-26T17:06:02.014Z,98869.34
2022-09-26T17:08:30.622Z,98865.59
2022-09-26T17:11:03.391Z,98862.66
2022-09-26T17:13:35.223Z,98861.13
2022-09-26T17:16:04.018Z,98855.41
2022-09-26T17:18:33.403Z,98854.69
2022-09-26T17:21:01.575Z,98854.69
2022-09-26T17:23:42.064Z,98852.41
2022-09-26T17:26:20.126Z,98838.44
2022-09-26T17:28:48.500Z,98841.03
2022-09-26T17:31:21.887Z,98834.19
2022-09-26T17:33:52.637Z,98829.16
2022-09-26T17:36:29.060Z,98840.97
2022-09-26T17:39:02.796Z,98833.66
2022-09-26T17:41:33.747Z,98834.44
2022-09-26T17:44:02.494Z,98836.22
2022-09-26T17:46:30.626Z,98838.22
2022-09-26T17:48:59.405Z,98844.00
2022-09-26T17:51:27.126Z,98845.97
2022-09-26T17:53:57.527Z,98849.41
2022-09-26T17:56:26.405Z,98853.25
2022-09-26T17:58:56.981Z,98853.25
2022-09-26T18:01:34.144Z,98854.09
2022-09-26T18:04:07.558Z,98849.19
2022-09-26T18:06:36.921Z,98851.53
2022-09-26T18:09:10.555Z,98846.25
2022-09-26T18:11:44.515Z,98851.19
2022-09-26T18:14:20.810Z,98849.03
2022-09-26T18:16:48.353Z,98843.84
2022-09-26T18:19:16.170Z,98844.13
2022-09-26T18:21:43.914Z,98841.91
2022-09-26T18:24:19.853Z,98842.28
2022-09-26T18:26:53.329Z,98832.47
2022-09-26T18:29:54.705Z,98829.38
2022-09-26T18:32:37.527Z,98819.22
2022-09-26T18:35:22.151Z,98816.19
2022-09-26T18:37:51.413Z,98807.53
2022-09-26T18:40:19.579Z,98805.22
2022-09-26T18:42:47.309Z,98805.94
2022-09-26T18:45:32.823Z,98804.47
2022-09-26T18:48:12.265Z,98801.78
2022-09-26T18:50:40.724Z,98808.69
2022-09-26T18:53:17.755Z,98801.88
2022-09-26T18:56:09.530Z,98804.63
2022-09-26T18:58:58.993Z,98797.75
2022-09-26T19:01:38.788Z,98803.97
2022-09-26T19:04:31.885Z,98802.38
2022-09-26T19:07:08.545Z,98805.41
2022-09-26T19:09:38.040Z,98804.78
2022-09-26T19:12:09.978Z,98809.00
2022-09-26T19:14:38.151Z,98810.19
2022-09-26T19:17:08.762Z,98808.69
2022-09-26T19:19:39.009Z,98800.75
2022-09-26T19:22:16.360Z,98806.38
2022-09-26T19:25:00.862Z,98795.34
2022-09-26T19:27:43.155Z,98791.22
2022-09-26T19:30:21.231Z,98796.34
2022-09-26T19:32:53.959Z,98800.75
2022-09-26T19:35:40.253Z,98793.50
2022-09-26T19:38:30.879Z,98783.66
2022-09-26T19:40:58.962Z,98791.38
2022-09-26T19:43:26.674Z,98788.38
2022-09-26T19:45:58.415Z,98778.47
2022-09-26T19:48:27.378Z,98776.16
2022-09-26T19:50:56.717Z,98771.66
2022-09-26T19:53:25.643Z,98783.09
2022-09-26T19:55:54.116Z,98776.25
2022-09-26T19:58:26.145Z,98769.50
2022-09-26T20:01:01.454Z,98771.44
2022-09-26T20:03:42.884Z,98773.41
2022-09-26T20:06:31.017Z,98776.47
2022-09-26T20:09:01.668Z,98772.72
2022-09-26T20:11:29.532Z,98776.06
2022-09-26T20:14:15.893Z,98774.59
2022-09-26T20:16:44.203Z,98769.69
2022-09-26T20:19:30.503Z,98768.53
2022-09-26T20:22:02.410Z,98765.91
2022-09-26T20:24:33.475Z,98764.75
2022-09-26T20:27:06.977Z,98761.06
2022-09-26T20:29:55.501Z,98766.84
2022-09-26T20:32:24.191Z,98771.88
2022-09-26T20:34:51.914Z,98776.09
2022-09-26T20:37:23.477Z,98775.00
2022-09-26T20:39:52.561Z,98771.56
2022-09-26T20:42:20.463Z,98770.84
2022-09-26T20:44:50.821Z,98772.41
2022-09-26T20:47:21.368Z,98773.22
2022-09-26T20:50:00.887Z,98770.94
2022-09-26T20:52:30.722Z,98775.09
2022-09-26T20:54:58.389Z,98776.69
2022-09-26T20:57:26.328Z,98777.06
2022-09-26T20:59:53.868Z,98777.47
2022-09-26T21:02:51.409Z,98774.44
2022-09-26T21:05:27.394Z,98769.53
2022-09-26T21:07:57.975Z,98768.38
2022-09-26T21:10:25.865Z,98759.59
2022-09-26T21:12:53.961Z,98764.16
2022-09-26T21:15:23.916Z,98755.09
2022-09-26T21:17:53.450Z,98746.72
2022-09-26T21:20:31.271Z,98750.19
2022-09-26T21:23:23.039Z,98755.50
2022-09-26T21:25:51.183Z,98745.25
2022-09-26T21:28:26.581Z,98747.16
2022-09-26T21:31:03.320Z,98753.59
2022-09-26T21:33:31.096Z,98745.25
2022-09-26T21:35:58.796Z,98737.63
2022-09-26T21:38:27.373Z,98740.28
2022-09-26T21:41:00.413Z,98714.50
2022-09-26T21:43:32.851Z,98702.72
2022-09-26T21:46:00.409Z,98710.31
2022-09-26T21:48:28.160Z,98705.38
2022-09-26T21:51:00.345Z,98698.16
2022-09-26T21:54:06.411Z,98692.88
2022-09-26T21:56:49.341Z,98700.84
2022-09-26T21:59:20.061Z,98674.66
2022-09-26T22:01:47.830Z,98674.28
2022-09-26T22:04:15.751Z,98673.13
2022-09-26T22:06:43.364Z,98672.38
2022-09-26T22:09:11.142Z,98678.84
2022-09-26T22:11:39.373Z,98671.59
2022-09-26T22:14:07.555Z,98662.09
2022-09-26T22:16:35.204Z,98665.53
2022-09-26T22:19:04.289Z,98665.53
2022-09-26T22:21:32.378Z,98661.00
2022-09-26T22:24:00.165Z,98658.69
2022-09-26T22:26:27.683Z,98652.63
2022-09-26T22:28:55.468Z,98653.00
2022-09-26T22:31:23.023Z,98652.59
2022-09-26T22:33:50.541Z,98652.63
2022-09-26T22:36:18.161Z,98660.56
2022-09-26T22:38:45.888Z,98663.94
2022-09-26T22:41:13.516Z,98643.47
2022-09-26T22:43:41.027Z,98648.03
2022-09-26T22:46:11.971Z,98649.22
2022-09-26T22:48:43.693Z,98645.81
2022-09-26T22:51:11.689Z,98646.19
2022-09-26T22:53:41.126Z,98643.53
2022-09-26T22:56:12.890Z,98649.63
2022-09-26T22:58:49.936Z,98643.53
2022-09-26T23:01:29.151Z,98646.19
2022-09-26T23:03:59.390Z,98648.88
2022-09-26T23:06:27.882Z,98643.56
2022-09-26T23:08:55.896Z,98631.03
2022-09-26T23:11:24.815Z,98641.28
2022-09-26T23:13:53.816Z,98634.06
2022-09-26T23:16:24.199Z,98635.97
2022-09-26T23:18:52.683Z,98629.13
2022-09-26T23:21:23.596Z,98626.09
2022-09-26T23:23:57.053Z,98621.53
2022-09-26T23:26:32.506Z,98608.28
2022-09-26T23:29:00.922Z,98602.59
2022-09-26T23:31:29.723Z,98607.91
2022-09-26T23:33:57.762Z,98607.09
2022-09-26T23:36:25.788Z,98607.50
2022-09-26T23:38:54.765Z,98600.66
2022-09-26T23:41:22.372Z,98593.44
2022-09-26T23:43:50.204Z,98587.75
2022-09-26T23:46:17.951Z,98592.69
2022-09-26T23:48:46.879Z,98590.44
2022-09-26T23:51:14.500Z,98597.28
2022-09-26T23:53:42.163Z,98596.50
2022-09-26T23:56:14.124Z,98593.88
2022-09-26T23:58:42.714Z,98597.63
